AirNav   Air Wisconsin Up To $57,000 Bonus
 
 1535 users online  

FL94 Florida Power & Light Co Heliport
Miami, Florida, USA

GOING TO MIAMI?


FAA INFORMATION EFFECTIVE 02 JANUARY 2020

Location

FAA Identifier: FL94
Lat/Long: 25-46-01.3590N 080-20-59.1880W
25-46.022650N 080-20.986467W
25.7670442,-80.3497744
(estimated)
Elevation: 107 ft. / 33 m (estimated)
Variation: 03W (1985)
From city: 9 miles W of MIAMI, FL
Time zone: UTC -5 (UTC -4 during Daylight Saving Time)
Zip code: 33174

Heliport Operations

Heliport use: Private use. Permission required prior to landing
Activation date: 02/1990
Control tower: no
ARTCC: MIAMI CENTER
FSS: MIAMI FLIGHT SERVICE STATION
Attendance: UNATNDD
Wind indicator: yes
Segmented circle: no

Heliport Communications

WX ASOS at MIA (4 nm NE): PHONE 305-870-0235
WX ASOS at TMB (8 nm SW): PHONE 305-235-1332
WX ASOS at OPF (9 nm NE): 125.9 (305-681-4063)
WX ASOS at HWO (15 nm NE): PHONE 954-983-5904
WX AWOS-3 at X51 (20 nm SW): 118.375 ((305) 247-2791)

Nearby radio navigation aids

VOR radial/distance  VOR name  Freq  Var
DHPr185/2.0DOLPHIN VORTAC113.9004W
VKZr279/10.6VIRGINIA KEY VOR/DME117.1004W
FLLr214/20.9FORT LAUDERDALE VOR/DME114.4006W

Heliport Services

Runway Information

Helipad H1

Dimensions: 60 x 60 ft. / 18 x 18 m
Surface: concrete, in fair condition
Latitude: 25-46.022650N
Longitude: 080-20.986467W
Elevation: 107.0 ft.
Traffic pattern: leftleft
Markings: none, in fair condition

Heliport Ownership and Management from official FAA records

Ownership: Privately-owned
Owner: OROT FLAGLER, LLC
9250 W. FLAGLER
MIAMI, FL 33174
Phone (786) 762-3444
POC = EVELYN MERCADO, GENERAL MANAGER - 786-762-3444
Manager: MANAGER, AVIATION DEPT
3800 SOUTHERN BLVD. HANGAR 1625C
WEST PALM BEACH, FL 33406
Phone 561-640-2012

Additional Remarks

FOR CD CTC MIAMI APCH AT 305-869-5432.

Instrument Procedures

There are no published instrument procedures at FL94.

Some nearby airports with instrument procedures:

KMIA - Miami International Airport (4 nm NE)
KTMB - Miami Executive Airport (8 nm SW)
KOPF - Miami-Opa Locka Executive Airport (9 nm NE)
KHWO - North Perry Airport (15 nm NE)
KHST - Homestead Air Reserve Base (17 nm S)
X51 - Miami Homestead General Aviation Airport (20 nm SW)
 
Loc | Ops | Rwys | IFR | FBO | Links
Com | Nav | Svcs | Stats | Notes


 
Area around FL94 (Florida Power & Light Co Heliport)
 
Road maps at: MapQuest Bing Google
 
Aerial photo
No photo
 
Sectional chart

 
Airport distance calculator
Flying to Florida Power & Light Co Heliport? Find the distance to fly.

From to FL94

Sunrise and sunset
Times for 23-Jan-2020
 Local
(UTC-5)
 Zulu
(UTC)
Morning civil twilight06:4511:45
Sunrise07:0912:09
Sunset17:5722:57
Evening civil twilight18:2223:22

Current date and time
Zulu (UTC)  23-Jan-2020 23:10:45
Local (UTC-5)  23-Jan-2020 18:10:45
 
METAR
KMIA 
2nm NE 
232253Z 34004KT 10SM -RA FEW020 BKN028 OVC040 21/17 A3000 RMK AO2 RAB02 SLP159 P0008 T02110172 $
KTMB 
8nm SW 
232253Z 05011KT 9SM -RA OVC048 19/18 A3000 RMK AO2 SLP158 P0000 T01940183
KOPF 
10nm N 
232253Z 03004KT 6SM -RA BR FEW011 BKN018 OVC038 19/18 A3001 RMK AO2 RAB2158E25B44 SLP164 T01940183 PNO $
KHWO 
15nm NE 
232249Z 01003KT 2SM RA BR FEW014 BKN029 19/18 A3002 RMK AO2 SLP165 P0018 T01890178
KHST 
18nm S 
232256Z AUTO 01010KT 10SM FEW044 OVC055 20/18 A2997 RMK AO2 RAB18E31DZB31E40 SLPNO P0000 T02010180 $
TAF
KMIA 
2nm NE 
232124Z 2321/2424 06010KT P6SM VCSH SCT025 BKN035 TEMPO 2321/2323 3SM SHRA BKN030 FM240000 10005KT P6SM SCT005 SCT025 FM241500 13010KT P6SM SCT035 SCT050
KTMB 
8nm SW 
231734Z 2318/2418 10010KT P6SM VCSH SCT035 BKN050 FM240000 VRB03KT P6SM SCT005 SCT025 FM241500 13007KT P6SM SCT035 SCT050
KOPF 
10nm N 
231734Z 2318/2418 09011KT P6SM VCSH SCT035 BKN050 FM240000 10005KT P6SM SCT005 SCT025 FM241500 13007KT P6SM SCT035 SCT050
KHST 
18nm S 
232000Z 2320/2502 07008KT 9999 FEW035 QNH2996INS BECMG 2320/2321 08010KT 9999 SCT025 BKN040 QNH2997INS BECMG 2405/2406 10006KT 8000 -SHRA BKN020 BKN040 QNH2998INS BECMG 2414/2415 09012KT 9999 NSW BKN030 QNH2999INS TX25/2320Z TN13/2412Z
NOTAMs
Click for the latest NOTAMs
NOTAMs are issued by the DoD/FAA and will open in a separate window not controlled by AirNav.

 

 
 

Would you like to see your business listed on this page?

 If your business provides an interesting product or service to pilots, flight crews, aircraft, or users of the Florida Power & Light Co Heliport, you should consider listing it here.  To start the listing process, click on the button below
 
Add a business
 

Other Pages about Florida Power & Light Co Heliport

Update a link
 
Copyright © AirNav, LLC. All rights reserved. Privacy Policy  Contact